Terminal Aerodrome Forecast
Issued by NWS Goodland, KS

Home | Current Version | Previous Version | Text Only | Print | Product List | Glossary On
Versions: 1 2 3 4 5 6 7 8 9 10 11 12 13 14
000
FTUS43 KGLD 161741
TAFGLD
TAF
KGLD 161741Z 1618/1718 04014KT P6SM FEW250
     FM170700 01011KT P6SM SCT003 BKN015
      TEMPO 1711/1713 -FZDZ SCT003 OVC008
     FM171400 35008KT P6SM SCT003 OVC008=

USA.gov is the U.S. government's official web portal to all federal, state and local government web resources and services.